createdAt,value
2023-02-12T00:01:51.158Z,4.11
2023-02-12T00:07:53.261Z,4.15
2023-02-12T00:13:21.072Z,4.11
2023-02-12T00:19:29.581Z,4.14
2023-02-12T00:25:13.505Z,4.21
2023-02-12T00:32:01.412Z,4.15
2023-02-12T00:38:33.331Z,4.15
2023-02-12T00:45:29.173Z,4.15
2023-02-12T00:51:34.805Z,4.14
2023-02-12T00:58:02.101Z,4.15
2023-02-12T01:04:18.756Z,4.16
2023-02-12T01:10:34.838Z,4.19
2023-02-12T01:16:25.623Z,4.19
2023-02-12T01:23:02.034Z,4.15
2023-02-12T01:29:23.900Z,4.16
2023-02-12T01:35:48.603Z,4.17
2023-02-12T01:42:35.828Z,4.21
2023-02-12T01:49:38.657Z,4.25
2023-02-12T01:56:26.604Z,4.26
2023-02-12T02:03:14.637Z,4.30
2023-02-12T02:10:09.839Z,4.29
2023-02-12T02:16:29.352Z,4.29
2023-02-12T02:23:26.389Z,4.31
2023-02-12T02:29:54.794Z,4.37
2023-02-12T02:36:41.445Z,4.36
2023-02-12T02:43:34.494Z,4.30
2023-02-12T02:50:33.535Z,4.32
2023-02-12T02:57:32.045Z,4.39
2023-02-12T03:04:40.828Z,4.38
2023-02-12T03:11:46.457Z,4.37
2023-02-12T03:18:49.278Z,4.44
2023-02-12T03:25:51.882Z,4.51
2023-02-12T03:32:22.725Z,4.52
2023-02-12T03:39:17.148Z,4.48
2023-02-12T03:45:59.774Z,4.49
2023-02-12T03:53:02.678Z,4.81
2023-02-12T04:00:05.586Z,4.82
2023-02-12T04:07:11.626Z,4.72
2023-02-12T04:14:36.373Z,4.65
2023-02-12T04:21:55.645Z,4.63
2023-02-12T04:29:05.985Z,4.55
2023-02-12T04:36:14.782Z,4.51
2023-02-12T04:43:13.825Z,4.50
2023-02-12T04:50:16.570Z,4.47
2023-02-12T04:57:13.761Z,4.41
2023-02-12T05:04:05.030Z,4.36
2023-02-12T05:10:47.668Z,4.34
2023-02-12T05:17:50.509Z,4.34
2023-02-12T05:24:53.296Z,4.28
2023-02-12T05:31:56.101Z,4.26
2023-02-12T05:38:36.054Z,4.21
2023-02-12T05:45:38.170Z,4.16
2023-02-12T05:52:40.943Z,4.12
2023-02-12T05:59:26.306Z,4.10
2023-02-12T06:06:18.897Z,4.07
2023-02-12T06:12:41.441Z,4.00
2023-02-12T06:19:31.164Z,3.97
2023-02-12T06:26:33.537Z,4.02
2023-02-12T06:33:15.977Z,4.08
2023-02-12T06:40:18.467Z,4.07
2023-02-12T06:47:09.769Z,4.05
2023-02-12T06:54:11.837Z,4.10
2023-02-12T07:00:39.682Z,4.16
2023-02-12T07:06:43.430Z,4.15
2023-02-12T07:13:06.562Z,4.20
2023-02-12T07:19:35.216Z,4.33
2023-02-12T07:24:39.981Z,4.48
2023-02-12T07:30:00.503Z,4.59
2023-02-12T07:35:21.441Z,4.61
2023-02-12T07:40:53.105Z,4.63
2023-02-12T07:47:03.840Z,4.70
2023-02-12T07:52:38.366Z,4.94
2023-02-12T07:58:33.562Z,6.21
2023-02-12T08:04:42.889Z,7.26
2023-02-12T08:11:46.080Z,9.42
2023-02-12T08:18:31.795Z,10.40
2023-02-12T08:25:24.855Z,9.87
2023-02-12T08:30:31.160Z,9.06
2023-02-12T08:36:34.254Z,8.44
2023-02-12T08:41:50.489Z,7.83
2023-02-12T08:47:12.805Z,7.47
2023-02-12T08:53:12.367Z,7.15
2023-02-12T08:58:48.542Z,7.00
2023-02-12T09:04:06.959Z,7.06
2023-02-12T09:09:51.277Z,7.00
2023-02-12T09:15:11.106Z,6.89
2023-02-12T09:20:18.440Z,6.78
2023-02-12T09:25:30.899Z,6.67
2023-02-12T09:30:55.614Z,6.70
2023-02-12T09:36:18.458Z,6.85
2023-02-12T09:41:39.757Z,7.20
2023-02-12T09:47:02.453Z,7.20
2023-02-12T09:52:56.369Z,7.08
2023-02-12T09:58:23.015Z,7.02
2023-02-12T10:04:15.807Z,7.06
2023-02-12T10:10:36.026Z,7.12
2023-02-12T10:16:30.775Z,7.15
2023-02-12T10:22:16.802Z,7.08
2023-02-12T10:28:09.083Z,7.03
2023-02-12T10:33:45.203Z,6.93
2023-02-12T10:38:58.349Z,6.85
2023-02-12T10:44:20.425Z,6.77
2023-02-12T10:50:02.584Z,6.73
2023-02-12T10:55:24.245Z,6.66
2023-02-12T11:00:33.006Z,6.65
2023-02-12T11:06:17.365Z,6.70
2023-02-12T11:11:37.425Z,6.69
2023-02-12T11:17:04.735Z,6.72
2023-02-12T11:22:18.475Z,6.77
2023-02-12T11:27:41.632Z,6.76
2023-02-12T11:32:57.015Z,6.76
2023-02-12T11:38:49.721Z,6.80
2023-02-12T11:44:32.023Z,6.87
2023-02-12T11:49:48.812Z,7.01
2023-02-12T11:55:01.069Z,7.14
2023-02-12T12:00:18.469Z,7.26
2023-02-12T12:05:59.997Z,7.35
2023-02-12T12:11:26.257Z,7.48
2023-02-12T12:17:13.834Z,7.48
2023-02-12T12:23:05.604Z,7.49
2023-02-12T12:28:38.967Z,7.51
2023-02-12T12:34:29.997Z,7.60
2023-02-12T12:40:00.046Z,7.70
2023-02-12T12:45:58.627Z,8.05
2023-02-12T12:51:08.959Z,8.37
2023-02-12T12:57:04.167Z,8.44
2023-02-12T13:02:30.632Z,8.24
2023-02-12T13:08:04.596Z,8.07
2023-02-12T13:13:53.280Z,8.02
2023-02-12T13:19:38.478Z,7.95
2023-02-12T13:25:19.035Z,7.72
2023-02-12T13:30:43.467Z,7.99
2023-02-12T13:36:12.745Z,8.53
2023-02-12T13:41:20.569Z,8.91
2023-02-12T13:46:44.210Z,9.31
2023-02-12T13:52:16.207Z,9.48
2023-02-12T13:58:25.932Z,9.44
2023-02-12T14:03:43.178Z,9.28
2023-02-12T14:08:56.456Z,9.04
2023-02-12T14:14:12.205Z,8.73
2023-02-12T14:19:41.928Z,8.59
2023-02-12T14:25:16.591Z,8.51
2023-02-12T14:30:26.626Z,8.60
2023-02-12T14:35:42.471Z,8.50
2023-02-12T14:40:46.614Z,8.20
2023-02-12T14:45:57.712Z,8.00
2023-02-12T14:51:02.462Z,7.75
2023-02-12T14:56:08.953Z,7.53
2023-02-12T15:01:11.668Z,7.34
2023-02-12T15:06:35.482Z,7.23
2023-02-12T15:11:44.690Z,7.04
2023-02-12T15:17:05.921Z,6.75
2023-02-12T15:22:31.382Z,6.45
2023-02-12T15:27:35.446Z,6.15
2023-02-12T15:32:45.442Z,5.83
2023-02-12T15:37:47.416Z,5.50
2023-02-12T15:43:57.126Z,5.26
2023-02-12T15:50:18.371Z,4.95
2023-02-12T15:55:54.089Z,4.73
2023-02-12T16:01:02.172Z,4.60
2023-02-12T16:06:10.570Z,4.48
2023-02-12T16:11:19.709Z,4.31
2023-02-12T16:17:05.515Z,4.08
2023-02-12T16:22:37.790Z,3.90
2023-02-12T16:28:38.983Z,3.78
2023-02-12T16:35:12.433Z,3.59
2023-02-12T16:41:29.170Z,3.45
2023-02-12T16:48:00.248Z,3.30
2023-02-12T16:54:30.708Z,3.17
2023-02-12T17:00:55.211Z,3.07
2023-02-12T17:07:16.461Z,3.08
2023-02-12T17:12:50.673Z,3.06
2023-02-12T17:19:00.458Z,2.97
2023-02-12T17:25:26.815Z,2.85
2023-02-12T17:30:31.851Z,2.77
2023-02-12T17:36:36.417Z,2.79
2023-02-12T17:42:56.471Z,2.70
2023-02-12T17:49:23.396Z,2.57
2023-02-12T17:55:44.945Z,2.47
2023-02-12T18:02:06.116Z,2.43
2023-02-12T18:07:33.324Z,2.40
2023-02-12T18:12:42.583Z,2.37
2023-02-12T18:18:00.295Z,2.36
2023-02-12T18:23:11.637Z,2.27
2023-02-12T18:28:16.374Z,2.15
2023-02-12T18:33:59.657Z,2.01
2023-02-12T18:39:24.470Z,1.93
2023-02-12T18:44:32.445Z,1.82
2023-02-12T18:49:33.986Z,1.63
2023-02-12T18:54:35.380Z,1.49
2023-02-12T18:59:36.851Z,1.38
2023-02-12T19:04:38.194Z,1.35
2023-02-12T19:09:39.823Z,1.28
2023-02-12T19:14:41.843Z,1.22
2023-02-12T19:19:43.517Z,1.17
2023-02-12T19:24:47.156Z,1.14
2023-02-12T19:29:48.641Z,1.10
2023-02-12T19:34:49.808Z,1.01
2023-02-12T19:39:51.084Z,0.97
2023-02-12T19:44:52.354Z,0.98
2023-02-12T19:49:54.479Z,0.96
2023-02-12T19:54:55.937Z,0.87
2023-02-12T19:59:57.709Z,0.76
2023-02-12T20:04:58.979Z,0.72
2023-02-12T20:10:00.585Z,0.73
2023-02-12T20:15:03.906Z,0.71
2023-02-12T20:20:06.297Z,0.66
2023-02-12T20:25:07.780Z,0.62
2023-02-12T20:30:09.272Z,0.61
2023-02-12T20:35:12.422Z,0.62
2023-02-12T20:40:13.748Z,0.60
2023-02-12T20:45:16.576Z,0.59
2023-02-12T20:50:18.045Z,0.61
2023-02-12T20:55:20.440Z,0.68
2023-02-12T21:00:21.738Z,0.71
2023-02-12T21:05:23.021Z,0.72
2023-02-12T21:10:24.296Z,0.75
2023-02-12T21:15:25.605Z,0.77
2023-02-12T21:20:26.936Z,0.83
2023-02-12T21:25:28.378Z,0.92
2023-02-12T21:30:29.802Z,0.96
2023-02-12T21:36:30.911Z,1.13
2023-02-12T21:42:51.842Z,1.28
2023-02-12T21:49:12.819Z,1.28
2023-02-12T21:55:33.794Z,1.33
2023-02-12T22:01:54.757Z,1.46
2023-02-12T22:07:16.124Z,1.54
2023-02-12T22:12:19.117Z,1.56
2023-02-12T22:17:20.310Z,1.55
2023-02-12T22:23:21.246Z,1.59
2023-02-12T22:28:50.940Z,1.61
2023-02-12T22:33:55.632Z,1.59
2023-02-12T22:38:59.697Z,1.61
2023-02-12T22:44:04.472Z,1.61
2023-02-12T22:49:09.877Z,1.57
2023-02-12T22:54:14.259Z,1.61
2023-02-12T22:59:16.023Z,1.64
2023-02-12T23:04:18.192Z,1.60
2023-02-12T23:10:19.390Z,1.56
2023-02-12T23:16:40.368Z,1.57
2023-02-12T23:23:01.463Z,1.60
2023-02-12T23:29:22.363Z,1.66
2023-02-12T23:35:43.553Z,1.74
2023-02-12T23:42:04.511Z,1.81
2023-02-12T23:48:25.627Z,1.94
2023-02-12T23:54:46.613Z,2.11
